createdAt,value
2017-05-17T00:00:04.404Z,4.62
2017-05-17T00:02:35.977Z,4.97
2017-05-17T00:05:05.521Z,5.18
2017-05-17T00:07:40.039Z,4.83
2017-05-17T00:10:11.564Z,5.56
2017-05-17T00:12:42.079Z,5.02
2017-05-17T00:15:11.616Z,5.46
2017-05-17T00:17:42.121Z,5.35
2017-05-17T00:20:14.771Z,5.32
2017-05-17T00:22:46.236Z,5.33
2017-05-17T00:25:17.780Z,5.13
2017-05-17T00:27:49.255Z,4.76
2017-05-17T00:30:20.791Z,5.24
2017-05-17T00:32:52.687Z,5.60
2017-05-17T00:35:34.208Z,4.90
2017-05-17T00:38:25.185Z,6.02
2017-05-17T00:41:12.671Z,5.63
2017-05-17T00:44:00.167Z,4.75
2017-05-17T00:46:47.524Z,5.65
2017-05-17T00:49:40.932Z,5.35
2017-05-17T00:52:17.296Z,4.63
2017-05-17T00:54:48.840Z,5.35
2017-05-17T00:57:18.371Z,5.98
2017-05-17T00:59:49.679Z,5.17
2017-05-17T01:02:20.179Z,5.50
2017-05-17T01:04:53.072Z,5.58
2017-05-17T01:07:22.603Z,6.18
2017-05-17T01:09:52.215Z,6.32
2017-05-17T01:12:21.744Z,5.77
2017-05-17T01:14:53.064Z,6.22
2017-05-17T01:17:27.023Z,6.73
2017-05-17T01:19:57.559Z,5.50
2017-05-17T01:22:28.075Z,5.42
2017-05-17T01:24:57.643Z,6.67
2017-05-17T01:27:27.191Z,5.75
2017-05-17T01:29:57.751Z,6.23
2017-05-17T01:32:28.255Z,7.18
2017-05-17T01:35:05.718Z,5.10
2017-05-17T01:37:39.754Z,5.47
2017-05-17T01:40:15.411Z,4.95
2017-05-17T01:42:48.080Z,5.78
2017-05-17T01:45:20.899Z,4.97
2017-05-17T01:47:50.435Z,5.70
2017-05-17T01:50:26.018Z,5.75
2017-05-17T01:52:56.542Z,5.62
2017-05-17T01:55:32.359Z,5.68
2017-05-17T01:58:01.899Z,5.70
2017-05-17T02:00:32.458Z,4.85
2017-05-17T02:03:02.963Z,5.53
2017-05-17T02:05:35.664Z,5.57
2017-05-17T02:08:05.191Z,4.63
2017-05-17T02:10:34.786Z,5.47
2017-05-17T02:13:06.299Z,5.42
2017-05-17T02:15:37.758Z,4.55
2017-05-17T02:18:08.282Z,5.28
2017-05-17T02:20:38.747Z,5.18
2017-05-17T02:23:08.282Z,5.58
2017-05-17T02:25:38.579Z,5.58
2017-05-17T02:28:12.642Z,5.32
2017-05-17T02:30:42.201Z,5.05
2017-05-17T02:33:13.694Z,5.25
2017-05-17T02:36:01.386Z,5.07
2017-05-17T02:38:37.350Z,4.70
2017-05-17T02:41:06.950Z,5.52
2017-05-17T02:43:36.506Z,5.77
2017-05-17T02:46:18.545Z,5.45
2017-05-17T02:48:49.014Z,5.38
2017-05-17T02:51:20.486Z,5.07
2017-05-17T02:54:01.206Z,5.92
2017-05-17T02:56:30.770Z,5.23
2017-05-17T02:59:00.310Z,4.83
2017-05-17T03:01:35.801Z,5.42
2017-05-17T03:04:10.526Z,4.58
2017-05-17T03:06:56.790Z,5.20
2017-05-17T03:09:27.063Z,4.55
2017-05-17T03:12:06.686Z,4.92
2017-05-17T03:14:36.218Z,5.82
2017-05-17T03:17:05.770Z,5.50
2017-05-17T03:19:36.037Z,5.33
2017-05-17T03:22:05.602Z,5.03
2017-05-17T03:24:35.869Z,5.08
2017-05-17T03:27:05.541Z,6.28
2017-05-17T03:29:35.205Z,6.50
2017-05-17T03:32:04.721Z,6.38
2017-05-17T03:34:34.273Z,6.72
2017-05-17T03:37:03.821Z,5.67
2017-05-17T03:39:33.390Z,6.50
2017-05-17T03:42:02.925Z,5.13
2017-05-17T03:44:32.489Z,5.55
2017-05-17T03:47:02.044Z,5.58
2017-05-17T03:49:31.597Z,5.55
2017-05-17T03:52:01.157Z,5.90
2017-05-17T03:54:30.694Z,6.40
2017-05-17T03:57:00.982Z,5.78
2017-05-17T03:59:30.522Z,5.58
2017-05-17T04:02:00.817Z,5.47
2017-05-17T04:04:30.353Z,5.53
2017-05-17T04:07:00.317Z,5.40
2017-05-17T04:09:29.937Z,5.37
2017-05-17T04:11:59.461Z,4.57
2017-05-17T04:14:29.732Z,5.32
2017-05-17T04:16:59.306Z,5.08
2017-05-17T04:19:29.577Z,5.25
2017-05-17T04:22:00.097Z,5.03
2017-05-17T04:24:29.625Z,6.15
2017-05-17T04:26:59.167Z,5.43
2017-05-17T04:29:29.449Z,5.33
2017-05-17T04:31:59.002Z,5.30
2017-05-17T04:34:28.620Z,5.93
2017-05-17T04:36:58.208Z,5.77
2017-05-17T04:39:27.730Z,5.23
2017-05-17T04:41:57.265Z,6.30
2017-05-17T04:44:26.814Z,5.72
2017-05-17T04:46:57.085Z,5.97
2017-05-17T04:49:26.624Z,5.80
2017-05-17T04:51:56.193Z,4.87
2017-05-17T04:54:25.732Z,4.48
2017-05-17T04:56:55.292Z,5.32
2017-05-17T04:59:24.837Z,5.30
2017-05-17T05:01:54.369Z,5.28
2017-05-17T05:04:24.665Z,5.50
2017-05-17T05:06:54.205Z,4.54
2017-05-17T05:09:24.504Z,4.10
2017-05-17T05:11:54.049Z,4.62
2017-05-17T05:14:23.697Z,4.22
2017-05-17T05:16:53.312Z,3.14
2017-05-17T05:19:22.887Z,4.08
2017-05-17T05:21:52.452Z,4.04
2017-05-17T05:24:22.741Z,3.46
2017-05-17T05:26:52.296Z,3.20
2017-05-17T05:29:22.860Z,3.42
2017-05-17T05:31:52.404Z,3.68
2017-05-17T05:34:26.052Z,3.34
2017-05-17T05:36:56.788Z,3.40
2017-05-17T05:39:29.564Z,3.22
2017-05-17T05:41:59.096Z,3.78
2017-05-17T05:44:29.603Z,3.56
2017-05-17T05:47:00.130Z,3.62
2017-05-17T05:49:29.668Z,3.42
2017-05-17T05:52:00.143Z,4.12
2017-05-17T05:54:30.712Z,3.20
2017-05-17T05:57:01.203Z,3.42
2017-05-17T05:59:32.671Z,2.72
2017-05-17T06:02:02.200Z,3.22
2017-05-17T06:04:32.656Z,3.28
2017-05-17T06:07:02.927Z,3.00
2017-05-17T06:09:33.752Z,3.20
2017-05-17T06:12:03.288Z,3.46
2017-05-17T06:14:32.880Z,3.80
2017-05-17T06:17:03.126Z,3.14
2017-05-17T06:19:32.659Z,3.68
2017-05-17T06:22:02.220Z,3.30
2017-05-17T06:24:31.771Z,3.96
2017-05-17T06:27:02.159Z,3.08
2017-05-17T06:29:31.688Z,3.68
2017-05-17T06:32:02.039Z,3.20
2017-05-17T06:34:32.559Z,4.04
2017-05-17T06:37:02.951Z,3.56
2017-05-17T06:39:32.484Z,3.68
2017-05-17T06:42:03.377Z,3.68
2017-05-17T06:44:32.903Z,3.78
2017-05-17T06:47:02.431Z,3.86
2017-05-17T06:49:32.734Z,4.30
2017-05-17T06:52:02.263Z,4.52
2017-05-17T06:54:32.539Z,4.08
2017-05-17T06:57:02.081Z,4.18
2017-05-17T06:59:31.623Z,3.70
2017-05-17T07:02:01.178Z,3.80
2017-05-17T07:04:30.703Z,4.44
2017-05-17T07:07:00.991Z,4.80
2017-05-17T07:09:30.515Z,3.56
2017-05-17T07:12:00.047Z,3.62
2017-05-17T07:14:30.326Z,3.46
2017-05-17T07:16:59.859Z,3.08
2017-05-17T07:19:30.210Z,3.28
2017-05-17T07:21:59.843Z,3.62
2017-05-17T07:24:29.379Z,4.14
2017-05-17T07:26:58.902Z,3.48
2017-05-17T07:29:29.218Z,3.60
2017-05-17T07:31:59.542Z,3.26
2017-05-17T07:34:29.074Z,3.12
2017-05-17T07:36:58.595Z,3.80
2017-05-17T07:39:28.143Z,3.06
2017-05-17T07:41:57.674Z,2.98
2017-05-17T07:44:27.963Z,3.26
2017-05-17T07:46:57.486Z,3.34
2017-05-17T07:49:27.022Z,3.14
2017-05-17T07:51:56.546Z,3.30
2017-05-17T07:54:26.082Z,3.38
2017-05-17T07:56:55.646Z,3.74
2017-05-17T07:59:25.178Z,2.88
2017-05-17T08:01:54.706Z,3.96
2017-05-17T08:04:24.255Z,3.56
2017-05-17T08:06:53.778Z,3.22
2017-05-17T08:09:23.318Z,3.80
2017-05-17T08:11:52.841Z,3.14
2017-05-17T08:14:22.383Z,3.50
2017-05-17T08:16:51.914Z,3.38
2017-05-17T08:19:21.446Z,3.02
2017-05-17T08:21:50.974Z,3.86
2017-05-17T08:24:21.322Z,3.40
2017-05-17T08:26:50.862Z,3.08
2017-05-17T08:29:20.438Z,3.36
2017-05-17T08:31:49.977Z,2.92
2017-05-17T08:34:19.514Z,3.54
2017-05-17T08:36:49.777Z,2.78
2017-05-17T08:39:19.310Z,3.06
2017-05-17T08:41:48.834Z,3.02
2017-05-17T08:44:18.382Z,2.88
2017-05-17T08:46:47.909Z,2.70
2017-05-17T08:49:17.437Z,2.90
2017-05-17T08:51:47.001Z,3.50
2017-05-17T08:54:16.525Z,2.96
2017-05-17T08:56:46.081Z,3.06
2017-05-17T08:59:15.605Z,3.80
2017-05-17T09:01:45.142Z,2.68
2017-05-17T09:04:14.705Z,2.78
2017-05-17T09:06:44.989Z,3.10
2017-05-17T09:09:14.522Z,3.90
2017-05-17T09:11:44.101Z,4.24
2017-05-17T09:14:13.622Z,3.28
2017-05-17T09:16:44.165Z,3.20
2017-05-17T09:19:14.445Z,3.70
2017-05-17T09:21:43.997Z,3.22
2017-05-17T09:24:14.261Z,2.28
2017-05-17T09:26:43.797Z,2.62
2017-05-17T09:29:13.329Z,2.50
2017-05-17T09:31:43.634Z,2.40
2017-05-17T09:34:13.158Z,2.48
2017-05-17T09:36:43.452Z,2.30
2017-05-17T09:39:13.048Z,2.64
2017-05-17T09:41:42.537Z,2.72
2017-05-17T09:44:12.069Z,2.48
2017-05-17T09:46:41.641Z,3.06
2017-05-17T09:49:11.166Z,2.30
2017-05-17T09:51:40.709Z,2.80
2017-05-17T09:54:12.005Z,3.32
2017-05-17T09:56:41.536Z,2.38
2017-05-17T09:59:11.129Z,2.70
2017-05-17T10:01:40.681Z,2.80
2017-05-17T10:04:10.244Z,3.34
2017-05-17T10:06:39.889Z,2.42
2017-05-17T10:09:10.181Z,2.30
2017-05-17T10:11:39.709Z,2.44
2017-05-17T10:14:09.992Z,2.56
2017-05-17T10:16:39.524Z,2.94
2017-05-17T10:19:09.064Z,2.58
2017-05-17T10:21:38.592Z,3.72
2017-05-17T10:24:08.181Z,2.60
2017-05-17T10:26:37.716Z,3.26
2017-05-17T10:29:07.250Z,2.64
2017-05-17T10:31:36.824Z,2.44
2017-05-17T10:34:06.368Z,3.18
2017-05-17T10:36:35.916Z,2.72
2017-05-17T10:39:05.780Z,2.48
2017-05-17T10:41:35.340Z,2.94
2017-05-17T10:44:05.076Z,3.10
2017-05-17T10:46:34.616Z,2.52
2017-05-17T10:49:05.907Z,2.38
2017-05-17T10:51:35.436Z,2.42
2017-05-17T10:54:05.008Z,2.90
2017-05-17T10:56:34.552Z,2.44
2017-05-17T10:59:05.189Z,2.74
2017-05-17T11:01:34.744Z,2.46
2017-05-17T11:04:04.288Z,3.72
2017-05-17T11:06:33.843Z,3.12
2017-05-17T11:09:03.387Z,2.76
2017-05-17T11:11:32.964Z,2.86
2017-05-17T11:14:02.496Z,2.42
2017-05-17T11:16:32.056Z,2.58
2017-05-17T11:19:02.328Z,2.64
2017-05-17T11:21:31.880Z,2.52
2017-05-17T11:24:01.407Z,2.56
2017-05-17T11:26:30.948Z,2.88
2017-05-17T11:29:00.495Z,2.96
2017-05-17T11:31:30.769Z,2.98
2017-05-17T11:34:00.332Z,2.68
2017-05-17T11:36:29.976Z,2.20
2017-05-17T11:38:59.511Z,2.64
2017-05-17T11:41:29.076Z,2.60
2017-05-17T11:43:58.604Z,2.38
2017-05-17T11:46:28.147Z,2.82
2017-05-17T11:48:58.443Z,2.36
2017-05-17T11:51:27.967Z,2.70
2017-05-17T11:53:57.511Z,2.96
2017-05-17T11:56:28.651Z,2.18
2017-05-17T11:58:59.116Z,2.50
2017-05-17T12:01:28.655Z,2.38
2017-05-17T12:03:58.943Z,2.12
2017-05-17T12:06:28.475Z,2.38
2017-05-17T12:08:58.007Z,2.60
2017-05-17T12:11:27.539Z,2.68
2017-05-17T12:13:57.071Z,2.40
2017-05-17T12:16:26.600Z,2.36
2017-05-17T12:18:57.144Z,2.22
2017-05-17T12:21:26.807Z,2.20
2017-05-17T12:23:56.304Z,2.38
2017-05-17T12:26:25.866Z,2.02
2017-05-17T12:28:55.422Z,2.14
2017-05-17T12:31:24.959Z,1.90
2017-05-17T12:33:55.563Z,2.22
2017-05-17T12:36:25.105Z,2.40
2017-05-17T12:38:55.391Z,2.40
2017-05-17T12:41:24.939Z,2.10
2017-05-17T12:43:54.471Z,2.36
2017-05-17T12:46:24.339Z,2.18
2017-05-17T12:48:54.634Z,2.58
2017-05-17T12:51:24.202Z,2.18
2017-05-17T12:53:53.739Z,1.74
2017-05-17T12:56:23.295Z,1.98
2017-05-17T12:58:53.010Z,1.80
2017-05-17T13:01:22.559Z,1.96
2017-05-17T13:03:52.083Z,1.90
2017-05-17T13:06:21.631Z,2.04
2017-05-17T13:08:51.210Z,2.04
2017-05-17T13:11:22.490Z,2.02
2017-05-17T13:13:52.070Z,1.82
2017-05-17T13:16:22.354Z,2.54
2017-05-17T13:18:51.890Z,2.48
2017-05-17T13:21:22.163Z,2.50
2017-05-17T13:23:51.818Z,2.68
2017-05-17T13:26:22.098Z,2.30
2017-05-17T13:28:51.638Z,2.42
2017-05-17T13:31:21.178Z,2.40
2017-05-17T13:33:50.942Z,2.30
2017-05-17T13:36:20.505Z,1.90
2017-05-17T13:38:50.042Z,2.46
2017-05-17T13:41:19.655Z,1.98
2017-05-17T13:43:49.202Z,2.10
2017-05-17T13:46:18.730Z,2.72
2017-05-17T13:48:48.261Z,2.06
2017-05-17T13:51:17.826Z,2.22
2017-05-17T13:53:47.355Z,1.86
2017-05-17T13:56:16.898Z,2.10
2017-05-17T13:58:46.429Z,2.48
2017-05-17T14:01:16.722Z,1.84
2017-05-17T14:03:46.262Z,2.18
2017-05-17T14:06:15.798Z,2.02
2017-05-17T14:08:45.321Z,1.90
2017-05-17T14:11:14.857Z,2.18
2017-05-17T14:13:44.418Z,2.18
2017-05-17T14:16:13.941Z,2.36
2017-05-17T14:18:43.493Z,1.70
2017-05-17T14:21:13.805Z,1.90
2017-05-17T14:23:43.557Z,2.76
2017-05-17T14:26:13.218Z,2.10
2017-05-17T14:28:42.970Z,2.36
2017-05-17T14:31:12.523Z,2.68
2017-05-17T14:33:42.054Z,2.78
2017-05-17T14:36:11.613Z,2.32
2017-05-17T14:38:41.129Z,2.16
2017-05-17T14:41:10.669Z,2.36
2017-05-17T14:43:40.213Z,2.12
2017-05-17T14:46:09.729Z,2.30
2017-05-17T14:48:39.285Z,2.40
2017-05-17T14:51:08.809Z,2.48
2017-05-17T14:53:38.345Z,2.18
2017-05-17T14:56:08.182Z,2.20
2017-05-17T14:58:37.801Z,2.36
2017-05-17T15:01:08.116Z,2.30
2017-05-17T15:03:37.645Z,2.62
2017-05-17T15:06:07.168Z,1.74
2017-05-17T15:08:36.705Z,2.14
2017-05-17T15:11:06.233Z,2.40
2017-05-17T15:13:35.793Z,2.72
2017-05-17T15:16:05.342Z,2.56
2017-05-17T15:18:34.906Z,2.10
2017-05-17T15:21:04.434Z,2.22
2017-05-17T15:23:33.969Z,2.34
2017-05-17T15:26:04.233Z,2.30
2017-05-17T15:28:33.766Z,2.42
2017-05-17T15:31:03.316Z,2.68
2017-05-17T15:33:33.065Z,2.54
2017-05-17T15:36:02.592Z,2.04
2017-05-17T15:38:32.121Z,2.28
2017-05-17T15:41:02.400Z,2.34
2017-05-17T15:43:31.938Z,2.10
2017-05-17T15:46:02.653Z,1.84
2017-05-17T15:48:32.157Z,2.44
2017-05-17T15:51:01.697Z,2.54
2017-05-17T15:53:31.962Z,2.88
2017-05-17T15:56:01.900Z,4.00
2017-05-17T15:58:31.632Z,4.34
2017-05-17T16:01:02.125Z,2.50
2017-05-17T16:03:31.656Z,2.66
2017-05-17T16:06:01.197Z,2.44
2017-05-17T16:08:30.721Z,2.36
2017-05-17T16:11:00.252Z,2.32
2017-05-17T16:13:29.785Z,2.22
2017-05-17T16:15:59.320Z,2.40
2017-05-17T16:18:28.860Z,2.20
2017-05-17T16:20:58.388Z,2.78
2017-05-17T16:23:27.925Z,2.56
2017-05-17T16:25:58.203Z,2.18
2017-05-17T16:28:27.724Z,2.46
2017-05-17T16:30:57.268Z,2.30
2017-05-17T16:33:26.804Z,2.74
2017-05-17T16:35:56.339Z,2.52
2017-05-17T16:38:25.876Z,2.60
2017-05-17T16:40:55.407Z,2.76
2017-05-17T16:43:24.940Z,2.52
2017-05-17T16:45:54.487Z,2.20
2017-05-17T16:48:24.020Z,2.20
2017-05-17T16:50:53.576Z,2.82
2017-05-17T16:53:23.099Z,2.20
2017-05-17T16:55:52.756Z,2.08
2017-05-17T16:58:22.283Z,2.88
2017-05-17T17:00:51.824Z,2.46
2017-05-17T17:03:21.355Z,2.24
2017-05-17T17:05:50.911Z,2.30
2017-05-17T17:08:20.439Z,2.90
2017-05-17T17:10:49.979Z,2.60
2017-05-17T17:13:19.515Z,2.62
2017-05-17T17:15:49.056Z,3.08
2017-05-17T17:18:18.583Z,2.90
2017-05-17T17:20:48.127Z,2.70
2017-05-17T17:23:17.659Z,2.82
2017-05-17T17:25:48.063Z,2.62
2017-05-17T17:28:17.559Z,3.00
2017-05-17T17:30:47.087Z,2.24
2017-05-17T17:33:17.380Z,3.12
2017-05-17T17:35:46.912Z,2.86
2017-05-17T17:38:16.483Z,2.94
2017-05-17T17:40:46.543Z,2.90
2017-05-17T17:43:16.833Z,2.90
2017-05-17T17:45:46.360Z,2.34
2017-05-17T17:48:15.971Z,2.62
2017-05-17T17:50:46.251Z,3.20
2017-05-17T17:53:15.783Z,3.06
2017-05-17T17:55:45.311Z,2.56
2017-05-17T17:58:15.575Z,2.56
2017-05-17T18:00:45.423Z,2.38
2017-05-17T18:03:14.946Z,2.62
2017-05-17T18:05:45.239Z,2.68
2017-05-17T18:08:14.872Z,3.02
2017-05-17T18:10:45.164Z,2.68
2017-05-17T18:13:14.688Z,3.38
2017-05-17T18:15:44.219Z,3.20
2017-05-17T18:18:14.221Z,2.68
2017-05-17T18:20:43.768Z,3.34
2017-05-17T18:23:13.304Z,2.54
2017-05-17T18:25:42.827Z,2.92
2017-05-17T18:28:12.383Z,2.68
2017-05-17T18:30:41.903Z,2.80
2017-05-17T18:33:11.442Z,3.18
2017-05-17T18:35:41.002Z,3.48
2017-05-17T18:38:10.540Z,4.08
2017-05-17T18:40:40.083Z,2.36
2017-05-17T18:43:11.331Z,3.04
2017-05-17T18:45:40.882Z,2.50
2017-05-17T18:48:10.414Z,2.80
2017-05-17T18:50:39.942Z,2.62
2017-05-17T18:53:10.234Z,2.52
2017-05-17T18:55:39.758Z,2.50
2017-05-17T18:58:10.055Z,3.10
2017-05-17T19:00:39.583Z,2.80
2017-05-17T19:03:09.164Z,3.40
2017-05-17T19:05:38.744Z,2.54
2017-05-17T19:08:09.272Z,2.88
2017-05-17T19:10:38.831Z,2.38
2017-05-17T19:13:08.374Z,2.66
2017-05-17T19:15:37.938Z,2.58
2017-05-17T19:18:07.521Z,2.52
2017-05-17T19:20:37.034Z,2.82
2017-05-17T19:23:07.502Z,2.46
2017-05-17T19:25:37.054Z,2.36
2017-05-17T19:28:06.580Z,2.66
2017-05-17T19:30:36.134Z,2.54
2017-05-17T19:33:05.673Z,2.98
2017-05-17T19:35:35.258Z,2.68
2017-05-17T19:38:04.806Z,2.44
2017-05-17T19:40:34.357Z,3.14
2017-05-17T19:43:03.898Z,2.32
2017-05-17T19:45:33.426Z,2.60
2017-05-17T19:48:02.994Z,2.72
2017-05-17T19:50:33.461Z,2.64
2017-05-17T19:53:03.010Z,2.94
2017-05-17T19:55:32.541Z,2.66
2017-05-17T19:58:02.094Z,2.82
2017-05-17T20:00:33.009Z,2.38
2017-05-17T20:03:02.562Z,2.98
2017-05-17T20:05:32.109Z,2.82
2017-05-17T20:08:01.633Z,2.80
2017-05-17T20:10:31.925Z,3.08
2017-05-17T20:13:02.233Z,2.62
2017-05-17T20:15:32.029Z,2.52
2017-05-17T20:18:01.613Z,2.92
2017-05-17T20:20:31.889Z,2.66
2017-05-17T20:23:01.446Z,3.52
2017-05-17T20:25:30.989Z,2.88
2017-05-17T20:28:00.533Z,3.24
2017-05-17T20:30:30.819Z,2.62
2017-05-17T20:33:00.355Z,2.90
2017-05-17T20:35:29.917Z,2.36
2017-05-17T20:37:59.461Z,2.98
2017-05-17T20:40:28.997Z,2.62
2017-05-17T20:42:58.545Z,2.70
2017-05-17T20:45:28.393Z,2.90
2017-05-17T20:47:58.725Z,2.66
2017-05-17T20:50:29.013Z,3.16
2017-05-17T20:52:58.562Z,2.48
2017-05-17T20:55:28.912Z,2.78
2017-05-17T20:57:58.473Z,2.40
2017-05-17T21:00:28.957Z,2.66
2017-05-17T21:02:58.686Z,3.34
2017-05-17T21:05:28.209Z,2.90
2017-05-17T21:07:57.784Z,2.58
2017-05-17T21:10:27.353Z,2.54
2017-05-17T21:12:56.920Z,2.68
2017-05-17T21:15:26.449Z,2.68
2017-05-17T21:17:56.021Z,3.10
2017-05-17T21:20:25.569Z,2.64
2017-05-17T21:22:56.017Z,3.12
2017-05-17T21:25:28.201Z,3.54
2017-05-17T21:27:58.297Z,3.24
2017-05-17T21:30:27.845Z,2.92
2017-05-17T21:32:57.613Z,3.18
2017-05-17T21:35:27.153Z,3.22
2017-05-17T21:37:57.244Z,3.50
2017-05-17T21:40:28.060Z,3.40
2017-05-17T21:42:57.624Z,3.40
2017-05-17T21:45:27.168Z,3.38
2017-05-17T21:47:56.788Z,3.26
2017-05-17T21:50:27.152Z,3.58
2017-05-17T21:52:56.692Z,3.34
2017-05-17T21:55:26.985Z,3.66
2017-05-17T21:57:56.532Z,3.50
2017-05-17T22:00:26.960Z,3.60
2017-05-17T22:02:56.524Z,3.80
2017-05-17T22:05:26.060Z,3.86
2017-05-17T22:07:56.440Z,3.78
2017-05-17T22:10:26.112Z,3.98
2017-05-17T22:15:44.931Z,3.98
2017-05-17T22:21:22.344Z,3.76
2017-05-17T22:23:52.824Z,3.30
2017-05-17T22:26:23.364Z,4.20
2017-05-17T22:28:52.928Z,3.78
2017-05-17T22:31:22.464Z,4.30
2017-05-17T22:33:52.041Z,4.14
2017-05-17T22:36:21.559Z,3.78
2017-05-17T22:38:51.100Z,3.22
2017-05-17T22:41:20.643Z,3.28
2017-05-17T22:43:50.252Z,3.82
2017-05-17T22:46:20.604Z,3.82
2017-05-17T22:48:51.143Z,3.58
2017-05-17T22:51:20.795Z,3.74
2017-05-17T22:53:50.295Z,3.92
2017-05-17T22:56:19.880Z,3.88
2017-05-17T22:58:49.392Z,3.68
2017-05-17T23:01:18.967Z,3.62
2017-05-17T23:03:48.511Z,4.12
2017-05-17T23:06:18.059Z,3.68
2017-05-17T23:08:48.376Z,4.00
2017-05-17T23:11:18.654Z,3.42
2017-05-17T23:13:48.219Z,4.02
2017-05-17T23:16:19.475Z,3.98
2017-05-17T23:18:49.030Z,3.98
2017-05-17T23:21:18.554Z,4.08
2017-05-17T23:23:48.100Z,4.14
2017-05-17T23:26:17.630Z,3.88
2017-05-17T23:28:47.168Z,4.66
2017-05-17T23:31:17.047Z,4.10
2017-05-17T23:33:46.586Z,3.62
2017-05-17T23:36:16.135Z,4.16
2017-05-17T23:38:45.699Z,4.58
2017-05-17T23:41:15.250Z,4.60
2017-05-17T23:43:44.792Z,4.50
2017-05-17T23:46:14.319Z,4.68
2017-05-17T23:48:45.659Z,3.96
2017-05-17T23:51:15.211Z,4.62
2017-05-17T23:53:44.774Z,4.52
2017-05-17T23:56:14.306Z,4.36
2017-05-17T23:58:44.858Z,4.94
